createdAt,value
2023-04-23T00:32:26.891Z,11.27
2023-04-23T00:36:37.306Z,11.50
2023-04-23T00:40:26.465Z,11.53
2023-04-23T00:44:14.804Z,11.55
2023-04-23T00:48:03.980Z,11.54
2023-04-23T00:51:59.022Z,11.53
2023-04-23T00:55:44.039Z,11.50
2023-04-23T00:59:53.065Z,11.42
2023-04-23T01:03:42.503Z,11.36
2023-04-23T01:07:34.296Z,11.33
2023-04-23T01:11:24.013Z,11.28
2023-04-23T01:15:12.447Z,11.18
2023-04-23T01:19:02.093Z,11.12
2023-04-23T01:22:54.362Z,11.04
2023-04-23T01:26:43.498Z,10.99
2023-04-23T01:30:32.987Z,10.98
2023-04-23T01:34:22.730Z,11.00
2023-04-23T01:38:14.886Z,11.03
2023-04-23T01:41:52.985Z,11.00
2023-04-23T01:45:42.472Z,10.92
2023-04-23T01:49:26.418Z,10.89
2023-04-23T01:53:08.585Z,10.87
2023-04-23T01:56:56.855Z,10.86
2023-04-23T02:00:56.132Z,10.83
2023-04-23T02:04:45.808Z,10.80
2023-04-23T02:08:21.658Z,10.79
2023-04-23T02:12:03.417Z,10.76
2023-04-23T02:15:50.543Z,10.75
2023-04-23T02:19:40.523Z,10.76
2023-04-23T02:23:29.950Z,10.77
2023-04-23T02:27:19.120Z,10.73
2023-04-23T02:35:49.834Z,10.64
2023-04-23T02:39:39.849Z,10.54
2023-04-23T02:43:29.034Z,10.47
2023-04-23T02:47:10.716Z,10.47
2023-04-23T02:50:59.897Z,10.45
2023-04-23T02:54:39.325Z,10.39
2023-04-23T02:58:15.327Z,10.34
2023-04-23T03:01:58.396Z,10.31
2023-04-23T03:05:52.849Z,10.34
2023-04-23T03:09:38.505Z,10.38
2023-04-23T03:13:27.766Z,10.43
2023-04-23T03:17:10.534Z,10.47
2023-04-23T03:20:59.780Z,10.45
2023-04-23T03:24:54.721Z,10.41
2023-04-23T03:28:44.646Z,10.43
2023-04-23T03:32:34.862Z,10.47
2023-04-23T03:36:24.134Z,10.53
2023-04-23T03:40:13.310Z,10.59
2023-04-23T03:44:11.786Z,10.64
2023-04-23T03:48:03.797Z,10.69
2023-04-23T03:51:46.655Z,10.74
2023-04-23T03:55:36.089Z,10.78
2023-04-23T03:59:25.396Z,10.79
2023-04-23T04:03:16.822Z,10.82
2023-04-23T04:07:06.399Z,10.84
2023-04-23T04:10:48.318Z,10.88
2023-04-23T04:14:43.679Z,10.91
2023-04-23T04:18:33.424Z,10.98
2023-04-23T04:22:22.671Z,11.08
2023-04-23T04:26:20.696Z,11.15
2023-04-23T04:30:03.080Z,11.20
2023-04-23T04:33:54.992Z,11.26
2023-04-23T04:37:44.358Z,11.33
2023-04-23T04:41:33.895Z,11.40
2023-04-23T04:45:23.184Z,11.48
2023-04-23T04:49:12.390Z,11.56
2023-04-23T04:52:54.478Z,11.62
2023-04-23T04:56:43.737Z,11.69
2023-04-23T05:00:27.322Z,11.78
2023-04-23T05:04:17.270Z,11.86
2023-04-23T05:08:06.829Z,11.94
2023-04-23T05:11:59.186Z,12.03
2023-04-23T05:15:48.564Z,12.12
2023-04-23T05:19:37.739Z,12.21
2023-04-23T05:23:27.098Z,12.32
2023-04-23T05:27:16.415Z,12.43
2023-04-23T05:31:05.917Z,12.53
2023-04-23T05:34:55.243Z,12.63
2023-04-23T05:38:43.953Z,12.73
2023-04-23T05:42:38.096Z,12.85
2023-04-23T05:46:27.772Z,12.96
2023-04-23T05:54:34.368Z,13.21
2023-04-23T05:58:23.624Z,13.35
2023-04-23T06:11:34.477Z,13.97
2023-04-23T06:15:24.732Z,14.09
2023-04-23T06:19:13.940Z,14.18
2023-04-23T06:23:27.111Z,14.28
2023-04-23T06:27:16.398Z,14.33
2023-04-23T06:31:05.830Z,14.38
2023-04-23T06:35:01.584Z,14.43
2023-04-23T06:38:51.460Z,14.50
2023-04-23T06:42:40.651Z,14.56
2023-04-23T06:46:34.908Z,14.63
2023-04-23T06:50:24.159Z,14.71
2023-04-23T06:54:50.925Z,14.82
2023-04-23T06:58:40.153Z,14.94
2023-04-23T07:02:30.200Z,15.04
2023-04-23T07:06:18.487Z,15.12
2023-04-23T07:10:07.883Z,15.22
2023-04-23T07:13:57.087Z,15.30
2023-04-23T07:17:46.546Z,15.38
2023-04-23T07:21:36.798Z,15.47
2023-04-23T07:25:26.612Z,15.54
2023-04-23T07:29:15.937Z,15.60
2023-04-23T07:33:05.225Z,15.69
2023-04-23T07:36:55.009Z,15.79
2023-04-23T07:40:46.020Z,15.90
2023-04-23T07:44:35.300Z,16.02
2023-04-23T07:48:25.252Z,16.22
2023-04-23T07:51:47.811Z,16.45
2023-04-23T07:55:17.205Z,16.71
2023-04-23T07:58:44.308Z,17.12
2023-04-23T08:02:27.186Z,17.54
2023-04-23T08:06:16.476Z,17.92
2023-04-23T08:10:05.774Z,18.28
2023-04-23T08:13:53.755Z,18.57
2023-04-23T08:17:41.536Z,18.84
2023-04-23T08:21:30.777Z,19.11
2023-04-23T08:25:16.256Z,19.40
2023-04-23T08:29:05.551Z,19.62
2023-04-23T08:32:54.944Z,19.84
2023-04-23T08:36:43.965Z,20.04
2023-04-23T08:40:38.904Z,20.21
2023-04-23T08:44:30.832Z,20.43
2023-04-23T08:48:14.424Z,20.60
2023-04-23T08:51:54.296Z,20.75
2023-04-23T08:55:43.476Z,20.87
2023-04-23T08:59:32.831Z,21.04
2023-04-23T09:03:28.095Z,21.17
2023-04-23T09:07:04.650Z,21.27
2023-04-23T09:11:09.696Z,21.29
2023-04-23T09:14:58.365Z,21.28
2023-04-23T09:18:46.652Z,21.47
2023-04-23T09:38:00.773Z,21.96
2023-04-23T10:20:41.986Z,20.19
2023-04-23T10:24:31.725Z,20.18
2023-04-23T10:28:21.599Z,20.13
2023-04-23T10:32:12.468Z,20.05
2023-04-23T10:36:01.686Z,19.96
2023-04-23T10:39:44.968Z,19.99
2023-04-23T10:43:35.216Z,20.10
2023-04-23T10:47:59.246Z,20.32
2023-04-23T10:55:40.821Z,20.62
2023-04-23T10:59:30.556Z,20.68
2023-04-23T11:03:25.599Z,20.73
2023-04-23T11:07:30.219Z,20.78
2023-04-23T11:11:37.758Z,20.78
2023-04-23T11:15:40.982Z,20.75
2023-04-23T11:19:45.444Z,20.68
2023-04-23T11:23:17.643Z,20.63
2023-04-23T11:27:10.257Z,20.59
2023-04-23T11:30:59.522Z,20.56
2023-04-23T11:34:48.791Z,20.51
2023-04-23T11:38:41.122Z,20.44
2023-04-23T11:42:56.064Z,20.32
2023-04-23T11:46:45.340Z,20.21
2023-04-23T11:50:34.896Z,20.09
2023-04-23T11:54:27.176Z,19.98
2023-04-23T11:58:22.649Z,19.88
2023-04-23T12:02:20.918Z,19.79
2023-04-23T12:06:10.618Z,19.70
2023-04-23T12:09:53.389Z,19.65
2023-04-23T12:13:42.601Z,19.61
2023-04-23T12:17:34.688Z,19.55
2023-04-23T12:21:26.109Z,19.47
2023-04-23T12:25:17.545Z,19.39
2023-04-23T12:29:06.869Z,19.36
2023-04-23T12:32:56.331Z,19.34
2023-04-23T12:36:45.591Z,19.32
2023-04-23T12:40:34.785Z,19.32
2023-04-23T12:44:24.515Z,19.34
2023-04-23T12:48:13.704Z,19.38
2023-04-23T12:52:02.954Z,19.46
2023-04-23T12:56:12.119Z,19.58
2023-04-23T13:00:01.489Z,19.72
2023-04-23T13:03:51.562Z,19.89
2023-04-23T13:07:41.254Z,20.37
2023-04-23T13:11:30.882Z,21.33
2023-04-23T13:15:20.415Z,22.45
2023-04-23T13:19:09.974Z,23.28
2023-04-23T13:22:59.277Z,23.88
2023-04-23T13:26:48.429Z,24.43
2023-04-23T13:30:38.109Z,24.88
2023-04-23T13:34:27.358Z,25.06
2023-04-23T13:38:09.482Z,24.91
2023-04-23T13:42:08.491Z,25.06
2023-04-23T13:46:00.084Z,25.70
2023-04-23T13:49:49.596Z,26.35
2023-04-23T13:53:38.997Z,26.89
2023-04-23T13:57:28.173Z,27.25
2023-04-23T14:01:16.159Z,27.58
2023-04-23T14:05:05.572Z,27.88
2023-04-23T14:08:53.700Z,28.13
2023-04-23T14:12:43.002Z,28.28
2023-04-23T14:16:32.430Z,28.43
2023-04-23T14:20:22.161Z,28.56
2023-04-23T14:24:17.447Z,28.04
2023-04-23T14:28:06.654Z,27.14
2023-04-23T14:31:55.944Z,26.21
2023-04-23T14:35:46.919Z,25.43
2023-04-23T14:39:34.873Z,24.81
2023-04-23T14:43:22.850Z,24.13
2023-04-23T14:47:11.209Z,23.60
2023-04-23T14:51:00.106Z,23.14
2023-04-23T14:54:48.114Z,22.71
2023-04-23T14:58:36.097Z,22.39
2023-04-23T15:02:13.072Z,22.21
2023-04-23T15:05:55.391Z,22.15
2023-04-23T15:09:43.468Z,22.02
2023-04-23T15:13:36.441Z,21.89
2023-04-23T15:17:30.625Z,22.14
2023-04-23T15:21:18.779Z,22.67
2023-04-23T15:25:06.755Z,23.38
2023-04-23T15:28:56.004Z,24.07
2023-04-23T15:32:43.947Z,24.62
2023-04-23T15:36:31.955Z,24.84
2023-04-23T15:40:19.890Z,24.96
2023-04-23T15:44:08.257Z,24.94
2023-04-23T15:47:56.184Z,24.66
2023-04-23T15:51:44.345Z,24.21
2023-04-23T15:55:33.644Z,23.42
2023-04-23T15:59:21.613Z,22.57
2023-04-23T16:03:09.639Z,21.90
2023-04-23T16:06:57.671Z,21.40
2023-04-23T16:10:46.260Z,20.96
2023-04-23T16:14:34.165Z,20.62
2023-04-23T16:18:22.079Z,20.31
2023-04-23T16:22:10.011Z,20.02
2023-04-23T16:25:58.667Z,19.72
2023-04-23T16:29:46.671Z,19.52
2023-04-23T16:33:34.925Z,19.40
2023-04-23T16:37:22.976Z,19.32
2023-04-23T16:41:11.012Z,19.21
2023-04-23T16:45:00.040Z,19.09
2023-04-23T16:48:41.256Z,18.98
2023-04-23T16:52:29.302Z,18.91
2023-04-23T16:56:10.333Z,18.83
2023-04-23T16:59:58.349Z,18.69
2023-04-23T17:03:46.605Z,18.55
2023-04-23T17:07:34.754Z,18.44
2023-04-23T17:11:22.692Z,18.32
2023-04-23T17:15:10.612Z,18.21
2023-04-23T17:18:58.536Z,18.08
2023-04-23T17:22:46.852Z,17.97
2023-04-23T17:26:34.910Z,17.79
2023-04-23T17:30:23.960Z,17.63
2023-04-23T17:34:11.961Z,17.45
2023-04-23T17:37:59.962Z,17.24
2023-04-23T17:41:48.973Z,17.00
2023-04-23T17:45:36.956Z,16.73
2023-04-23T17:50:12.053Z,16.50
2023-04-23T17:53:34.154Z,16.27
2023-04-23T17:57:15.503Z,16.08
2023-04-23T18:01:11.728Z,15.87
2023-04-23T18:04:48.822Z,15.63
2023-04-23T18:08:27.619Z,15.47
2023-04-23T18:12:15.125Z,15.30
2023-04-23T18:16:03.114Z,15.09
2023-04-23T18:19:51.293Z,14.90
2023-04-23T18:23:45.313Z,14.70
2023-04-23T18:27:34.264Z,14.51
2023-04-23T18:31:26.781Z,14.31
2023-04-23T18:35:18.048Z,14.14
2023-04-23T18:38:50.102Z,13.99
2023-04-23T18:42:29.971Z,13.91
2023-04-23T18:46:18.074Z,13.88
2023-04-23T18:50:18.262Z,13.83
2023-04-23T18:54:07.238Z,13.75
2023-04-23T18:57:55.186Z,13.61
2023-04-23T19:01:45.184Z,13.50
2023-04-23T19:05:33.954Z,13.43
2023-04-23T19:09:24.384Z,13.35
2023-04-23T19:13:12.354Z,13.24
2023-04-23T19:17:00.437Z,13.21
2023-04-23T19:20:48.685Z,13.18
2023-04-23T19:24:36.729Z,13.14
2023-04-23T19:28:24.700Z,13.06
2023-04-23T19:32:12.972Z,13.00
2023-04-23T19:36:01.069Z,12.89
2023-04-23T19:39:49.096Z,12.84
2023-04-23T19:43:38.150Z,12.80
2023-04-23T19:47:18.952Z,12.71
2023-04-23T19:51:07.129Z,12.65
2023-04-23T19:54:57.452Z,12.62
2023-04-23T19:58:47.564Z,12.59
2023-04-23T20:02:35.972Z,12.53
2023-04-23T20:06:24.110Z,12.43
2023-04-23T20:10:14.474Z,12.33
2023-04-23T20:14:04.086Z,12.10
2023-04-23T20:17:52.655Z,11.89
2023-04-23T20:21:33.773Z,11.79
2023-04-23T20:25:22.951Z,11.73
2023-04-23T20:29:05.212Z,11.70
2023-04-23T20:32:53.335Z,11.66
2023-04-23T20:36:41.297Z,11.52
2023-04-23T20:40:21.932Z,11.37
2023-04-23T20:44:09.862Z,11.32
2023-04-23T20:47:57.923Z,11.29
2023-04-23T20:51:45.912Z,11.22
2023-04-23T20:55:40.029Z,11.16
2023-04-23T20:59:28.442Z,11.12
2023-04-23T21:03:03.928Z,11.09
2023-04-23T21:06:46.850Z,11.05
2023-04-23T21:10:34.988Z,11.02
2023-04-23T21:14:09.373Z,10.95
2023-04-23T21:16:57.594Z,10.88
2023-04-23T21:19:25.154Z,10.85
2023-04-23T21:21:52.776Z,10.80
2023-04-23T21:25:11.977Z,10.68
2023-04-23T21:29:01.085Z,10.53
2023-04-23T21:32:50.445Z,10.36
2023-04-23T21:36:39.863Z,10.15
2023-04-23T21:40:27.851Z,10.01
2023-04-23T21:44:15.800Z,9.92
2023-04-23T21:48:04.030Z,9.84
2023-04-23T21:51:52.499Z,9.85
2023-04-23T21:55:43.463Z,9.86
2023-04-23T21:59:30.279Z,9.75
2023-04-23T22:03:13.751Z,9.70
2023-04-23T22:06:59.166Z,9.71
2023-04-23T22:10:47.413Z,9.68
2023-04-23T22:14:19.823Z,9.62
2023-04-23T22:18:07.782Z,9.56
2023-04-23T22:21:54.612Z,9.53
2023-04-23T22:25:41.585Z,9.51
2023-04-23T22:29:23.204Z,9.46
2023-04-23T22:33:11.148Z,9.42
2023-04-23T22:37:01.138Z,9.39
2023-04-23T22:40:49.333Z,9.35
2023-04-23T22:44:37.276Z,9.31
2023-04-23T22:48:23.986Z,9.28
2023-04-23T22:52:17.153Z,9.26
2023-04-23T22:56:05.148Z,9.22
2023-04-23T22:59:54.180Z,9.21
2023-04-23T23:03:42.215Z,9.20
2023-04-23T23:07:30.237Z,9.16
2023-04-23T23:11:18.173Z,9.02
2023-04-23T23:15:12.302Z,8.94
2023-04-23T23:19:00.253Z,8.89
2023-04-23T23:22:48.344Z,8.84
2023-04-23T23:26:32.264Z,8.82
2023-04-23T23:30:04.924Z,8.78
2023-04-23T23:33:51.769Z,8.72
2023-04-23T23:37:30.148Z,8.67
2023-04-23T23:41:17.176Z,8.63
2023-04-23T23:45:05.234Z,8.59
2023-04-23T23:48:53.946Z,8.54
2023-04-23T23:52:41.896Z,8.49
2023-04-23T23:56:31.212Z,8.46
